createdAt,value
2023-05-12T00:00:52.547Z,0.00
2023-05-12T00:01:52.529Z,0.00
2023-05-12T00:02:52.650Z,0.00
2023-05-12T00:03:52.741Z,0.00
2023-05-12T00:04:52.610Z,0.00
2023-05-12T00:05:52.514Z,0.00
2023-05-12T00:06:52.465Z,0.00
2023-05-12T00:07:52.472Z,0.00
2023-05-12T00:08:52.453Z,0.00
2023-05-12T00:09:52.428Z,0.00
2023-05-12T00:10:52.420Z,0.00
2023-05-12T00:11:52.426Z,0.00
2023-05-12T00:12:52.402Z,0.00
2023-05-12T00:13:52.427Z,0.00
2023-05-12T00:14:52.368Z,0.00
2023-05-12T00:15:52.459Z,0.00
2023-05-12T00:16:52.672Z,0.00
2023-05-12T00:17:52.495Z,0.00
2023-05-12T00:18:52.373Z,0.00
2023-05-12T00:19:52.311Z,0.00
2023-05-12T00:20:52.296Z,0.00
2023-05-12T00:21:52.312Z,0.00
2023-05-12T00:22:52.259Z,0.00
2023-05-12T00:23:52.248Z,0.00
2023-05-12T00:24:52.223Z,0.00
2023-05-12T00:25:52.238Z,0.00
2023-05-12T00:26:52.234Z,0.00
2023-05-12T00:27:52.197Z,0.00
2023-05-12T00:28:52.215Z,0.00
2023-05-12T00:29:52.172Z,0.00
2023-05-12T00:30:52.168Z,0.00
2023-05-12T00:31:52.190Z,0.00
2023-05-12T00:32:52.146Z,0.00
2023-05-12T00:33:52.120Z,0.00
2023-05-12T00:34:52.101Z,0.00
2023-05-12T00:35:52.085Z,0.00
2023-05-12T00:36:52.107Z,0.00
2023-05-12T00:37:52.065Z,0.00
2023-05-12T00:38:52.059Z,0.00
2023-05-12T00:39:52.060Z,0.00
2023-05-12T00:40:52.026Z,0.00
2023-05-12T00:41:52.084Z,0.00
2023-05-12T00:42:51.992Z,0.00
2023-05-12T00:43:51.995Z,0.00
2023-05-12T00:44:51.968Z,0.00
2023-05-12T00:45:52.010Z,0.00
2023-05-12T00:46:51.964Z,0.00
2023-05-12T00:47:51.966Z,0.00
2023-05-12T00:48:51.933Z,0.00
2023-05-12T00:49:51.905Z,0.00
2023-05-12T00:50:51.909Z,0.00
2023-05-12T00:51:51.883Z,0.00
2023-05-12T00:52:51.871Z,0.00
2023-05-12T00:53:51.859Z,0.00
2023-05-12T00:54:51.839Z,0.00
2023-05-12T00:55:51.843Z,0.00
2023-05-12T00:56:51.862Z,0.00
2023-05-12T00:57:51.802Z,0.00
2023-05-12T00:58:51.793Z,0.00
2023-05-12T00:59:51.815Z,0.00
2023-05-12T01:00:51.818Z,0.00
2023-05-12T01:01:51.748Z,0.00
2023-05-12T01:02:51.812Z,0.00
2023-05-12T01:03:51.710Z,0.00
2023-05-12T01:04:51.719Z,0.00
2023-05-12T01:05:51.703Z,0.00
2023-05-12T01:06:51.681Z,0.00
2023-05-12T01:07:51.667Z,0.00
2023-05-12T01:08:51.649Z,0.00
2023-05-12T01:09:51.652Z,0.00
2023-05-12T01:10:51.632Z,0.00
2023-05-12T01:11:51.620Z,0.00
2023-05-12T01:12:51.593Z,0.00
2023-05-12T01:13:51.609Z,0.00
2023-05-12T01:14:51.591Z,0.00
2023-05-12T01:15:51.568Z,0.00
2023-05-12T01:16:51.596Z,0.00
2023-05-12T01:17:51.606Z,0.00
2023-05-12T01:18:51.705Z,0.00
2023-05-12T01:19:51.512Z,0.00
2023-05-12T01:20:51.492Z,0.00
2023-05-12T01:21:51.477Z,0.00
2023-05-12T01:22:51.459Z,0.00
2023-05-12T01:23:51.494Z,0.00
2023-05-12T01:24:51.466Z,0.00
2023-05-12T01:25:51.449Z,0.00
2023-05-12T01:26:51.410Z,0.00
2023-05-12T01:27:51.418Z,0.00
2023-05-12T01:28:51.431Z,0.00
2023-05-12T01:29:51.383Z,0.00
2023-05-12T01:30:51.394Z,0.00
2023-05-12T01:31:51.358Z,0.00
2023-05-12T01:32:51.448Z,0.00
2023-05-12T01:33:51.317Z,0.00
2023-05-12T01:34:51.302Z,0.00
2023-05-12T01:35:51.298Z,0.00
2023-05-12T01:36:51.276Z,0.00
2023-05-12T01:37:51.291Z,0.00
2023-05-12T01:38:51.250Z,0.00
2023-05-12T01:39:51.255Z,0.00
2023-05-12T01:40:51.226Z,0.00
2023-05-12T01:41:51.223Z,0.00
2023-05-12T01:42:51.212Z,0.00
2023-05-12T01:43:51.192Z,0.00
2023-05-12T01:44:51.184Z,0.00
2023-05-12T01:45:51.192Z,0.00
2023-05-12T01:46:51.254Z,0.00
2023-05-12T01:47:51.255Z,0.00
2023-05-12T01:48:51.111Z,0.00
2023-05-12T01:49:51.146Z,0.00
2023-05-12T01:50:51.086Z,0.00
2023-05-12T01:51:51.103Z,0.00
2023-05-12T01:52:51.095Z,0.00
2023-05-12T01:53:51.051Z,0.00
2023-05-12T01:54:51.061Z,0.00
2023-05-12T01:55:51.037Z,0.00
2023-05-12T01:56:51.017Z,0.00
2023-05-12T01:57:51.001Z,0.00
2023-05-12T01:58:51.020Z,0.00
2023-05-12T01:59:50.981Z,0.00
2023-05-12T02:00:51.044Z,0.00
2023-05-12T02:01:51.026Z,0.00
2023-05-12T02:02:51.042Z,0.00
2023-05-12T02:03:51.029Z,0.00
2023-05-12T02:04:50.918Z,0.00
2023-05-12T02:05:50.907Z,0.00
2023-05-12T02:06:50.919Z,0.00
2023-05-12T02:07:50.904Z,0.00
2023-05-12T02:08:50.858Z,0.00
2023-05-12T02:09:50.859Z,0.00
2023-05-12T02:10:50.836Z,0.00
2023-05-12T02:11:50.843Z,0.00
2023-05-12T02:12:50.853Z,0.00
2023-05-12T02:13:51.973Z,0.00
2023-05-12T02:14:50.795Z,0.00
2023-05-12T02:15:50.768Z,0.00
2023-05-12T02:16:50.969Z,0.00
2023-05-12T02:17:50.771Z,0.00
2023-05-12T02:18:50.760Z,0.00
2023-05-12T02:19:50.758Z,0.00
2023-05-12T02:20:50.711Z,0.00
2023-05-12T02:21:50.696Z,0.00
2023-05-12T02:22:50.690Z,0.00
2023-05-12T02:23:50.669Z,0.00
2023-05-12T02:24:50.682Z,0.00
2023-05-12T02:25:50.657Z,0.00
2023-05-12T02:26:50.619Z,0.00
2023-05-12T02:27:50.620Z,0.00
2023-05-12T02:28:50.617Z,0.00
2023-05-12T02:29:50.586Z,0.00
2023-05-12T02:30:50.567Z,0.00
2023-05-12T02:31:50.654Z,0.00
2023-05-12T02:32:50.576Z,0.00
2023-05-12T02:33:50.535Z,0.00
2023-05-12T02:34:50.509Z,0.00
2023-05-12T02:35:50.520Z,0.00
2023-05-12T02:36:50.474Z,0.00
2023-05-12T02:37:50.466Z,0.00
2023-05-12T02:38:50.565Z,0.00
2023-05-12T02:39:50.448Z,0.00
2023-05-12T02:40:50.436Z,0.00
2023-05-12T02:41:50.412Z,0.00
2023-05-12T02:42:50.414Z,0.00
2023-05-12T02:43:50.431Z,0.00
2023-05-12T02:44:50.398Z,0.00
2023-05-12T02:45:50.396Z,0.00
2023-05-12T02:46:50.358Z,0.00
2023-05-12T02:47:50.384Z,0.00
2023-05-12T02:48:50.323Z,0.00
2023-05-12T02:49:50.309Z,0.00
2023-05-12T02:50:50.316Z,0.00
2023-05-12T02:51:50.284Z,0.00
2023-05-12T02:52:50.280Z,0.00
2023-05-12T02:53:50.277Z,0.00
2023-05-12T02:54:50.283Z,0.00
2023-05-12T02:55:50.246Z,0.00
2023-05-12T02:56:50.227Z,0.00
2023-05-12T02:57:50.239Z,0.00
2023-05-12T02:58:50.188Z,0.00
2023-05-12T02:59:50.175Z,4.00
2023-05-12T03:00:54.289Z,0.00
2023-05-12T03:01:51.220Z,0.00
2023-05-12T03:02:50.339Z,0.00
2023-05-12T03:03:50.216Z,4.00
2023-05-12T03:04:50.112Z,0.00
2023-05-12T03:05:50.115Z,4.00
2023-05-12T03:06:50.093Z,4.00
2023-05-12T03:07:50.115Z,4.00
2023-05-12T03:08:50.058Z,4.00
2023-05-12T03:09:50.062Z,4.00
2023-05-12T03:10:50.039Z,4.00
2023-05-12T03:11:50.044Z,8.00
2023-05-12T03:12:50.002Z,4.00
2023-05-12T03:13:49.989Z,4.00
2023-05-12T03:14:49.985Z,8.00
2023-05-12T03:15:49.976Z,8.00
2023-05-12T03:16:50.015Z,8.00
2023-05-12T03:17:49.994Z,12.00
2023-05-12T03:18:49.948Z,12.00
2023-05-12T03:19:49.936Z,16.00
2023-05-12T03:20:49.937Z,16.00
2023-05-12T03:21:49.907Z,16.00
2023-05-12T03:22:49.873Z,16.00
2023-05-12T03:23:49.853Z,20.00
2023-05-12T03:24:49.862Z,24.00
2023-05-12T03:25:49.875Z,24.00
2023-05-12T03:26:49.867Z,28.00
2023-05-12T03:27:49.806Z,28.00
2023-05-12T03:28:49.800Z,28.00
2023-05-12T03:29:49.791Z,32.00
2023-05-12T03:30:49.774Z,32.00
2023-05-12T03:31:49.817Z,36.00
2023-05-12T03:32:49.846Z,40.00
2023-05-12T03:33:49.739Z,40.00
2023-05-12T03:34:49.746Z,44.00
2023-05-12T03:35:49.746Z,48.00
2023-05-12T03:36:49.681Z,48.00
2023-05-12T03:37:49.685Z,56.00
2023-05-12T03:38:49.665Z,60.00
2023-05-12T03:39:49.667Z,64.00
2023-05-12T03:40:49.646Z,68.00
2023-05-12T03:41:49.637Z,72.00
2023-05-12T03:42:49.600Z,80.00
2023-05-12T03:43:49.603Z,80.00
2023-05-12T03:44:49.593Z,92.00
2023-05-12T03:45:49.585Z,96.00
2023-05-12T03:46:49.684Z,100.00
2023-05-12T03:47:49.624Z,104.00
2023-05-12T03:48:49.548Z,108.00
2023-05-12T03:49:49.587Z,120.00
2023-05-12T03:50:49.504Z,124.00
2023-05-12T03:51:49.485Z,136.00
2023-05-12T03:52:49.477Z,140.00
2023-05-12T03:53:49.476Z,152.00
2023-05-12T03:54:49.462Z,160.00
2023-05-12T03:55:49.444Z,168.00
2023-05-12T03:56:49.416Z,176.00
2023-05-12T03:57:49.413Z,180.00
2023-05-12T03:58:49.411Z,184.00
2023-05-12T03:59:49.388Z,188.00
2023-05-12T04:00:49.370Z,196.00
2023-05-12T04:01:49.397Z,200.00
2023-05-12T04:02:49.439Z,208.00
2023-05-12T04:03:49.527Z,216.00
2023-05-12T04:04:49.308Z,224.00
2023-05-12T04:05:49.335Z,224.00
2023-05-12T04:06:49.300Z,228.00
2023-05-12T04:07:49.303Z,232.00
2023-05-12T04:08:49.282Z,240.00
2023-05-12T04:09:49.253Z,248.00
2023-05-12T04:10:49.224Z,256.00
2023-05-12T04:11:49.251Z,252.00
2023-05-12T04:12:49.234Z,248.00
2023-05-12T04:13:49.218Z,248.00
2023-05-12T04:14:49.215Z,252.00
2023-05-12T04:15:49.156Z,252.00
2023-05-12T04:16:49.265Z,256.00
2023-05-12T04:17:49.216Z,256.00
2023-05-12T04:18:49.180Z,256.00
2023-05-12T04:19:49.127Z,256.00
2023-05-12T04:20:49.126Z,252.00
2023-05-12T04:21:49.131Z,252.00
2023-05-12T04:22:49.112Z,252.00
2023-05-12T04:23:49.063Z,256.00
2023-05-12T04:24:49.057Z,256.00
2023-05-12T04:25:49.048Z,260.00
2023-05-12T04:26:49.041Z,260.00
2023-05-12T04:27:49.036Z,260.00
2023-05-12T04:28:48.999Z,260.00
2023-05-12T04:29:48.999Z,268.00
2023-05-12T04:30:48.964Z,276.00
2023-05-12T04:31:49.129Z,280.00
2023-05-12T04:32:49.013Z,284.00
2023-05-12T04:33:48.964Z,292.00
2023-05-12T04:34:48.947Z,300.00
2023-05-12T04:35:48.923Z,304.00
2023-05-12T04:36:48.915Z,308.00
2023-05-12T04:37:48.873Z,308.00
2023-05-12T04:38:48.891Z,308.00
2023-05-12T04:39:48.842Z,312.00
2023-05-12T04:40:48.836Z,312.00
2023-05-12T04:41:48.879Z,320.00
2023-05-12T04:42:48.841Z,324.00
2023-05-12T04:44:48.798Z,340.00
2023-05-12T04:45:48.827Z,344.00
2023-05-12T04:46:48.777Z,352.00
2023-05-12T04:47:48.826Z,360.00
2023-05-12T04:48:48.747Z,364.00
2023-05-12T04:49:48.732Z,372.00
2023-05-12T04:50:48.732Z,384.00
2023-05-12T04:51:48.716Z,388.00
2023-05-12T04:52:48.726Z,396.00
2023-05-12T04:53:48.669Z,404.00
2023-05-12T04:54:48.671Z,416.00
2023-05-12T04:55:48.678Z,428.00
2023-05-12T04:56:48.638Z,436.00
2023-05-12T04:57:48.628Z,448.00
2023-05-12T04:58:48.619Z,460.00
2023-05-12T04:59:48.597Z,464.00
2023-05-12T05:00:48.593Z,476.00
2023-05-12T05:01:48.602Z,480.00
2023-05-12T05:02:48.672Z,488.00
2023-05-12T05:03:48.659Z,496.00
2023-05-12T05:04:48.552Z,504.00
2023-05-12T05:05:48.532Z,512.00
2023-05-12T05:06:48.496Z,516.00
2023-05-12T05:07:48.526Z,524.00
2023-05-12T05:08:48.482Z,532.00
2023-05-12T05:09:48.476Z,540.00
2023-05-12T05:10:48.476Z,548.00
2023-05-12T05:11:48.430Z,556.00
2023-05-12T05:12:48.428Z,572.00
2023-05-12T05:13:48.462Z,576.00
2023-05-12T05:14:48.438Z,588.00
2023-05-12T05:15:48.402Z,596.00
2023-05-12T05:16:48.371Z,608.00
2023-05-12T05:17:48.435Z,616.00
2023-05-12T05:18:48.411Z,628.00
2023-05-12T05:19:55.937Z,632.00
2023-05-12T05:20:57.131Z,640.00
2023-05-12T05:21:49.299Z,648.00
2023-05-12T05:22:48.287Z,656.00
2023-05-12T05:23:48.302Z,664.00
2023-05-12T05:24:48.267Z,672.00
2023-05-12T05:25:48.248Z,680.00
2023-05-12T05:26:48.238Z,688.00
2023-05-12T05:27:48.230Z,700.00
2023-05-12T05:28:48.225Z,716.00
2023-05-12T05:29:48.208Z,724.00
2023-05-12T05:30:48.206Z,732.00
2023-05-12T05:31:48.389Z,736.00
2023-05-12T05:32:48.203Z,744.00
2023-05-12T05:33:48.190Z,752.00
2023-05-12T05:34:48.140Z,760.00
2023-05-12T05:35:48.139Z,776.00
2023-05-12T05:36:48.129Z,796.00
2023-05-12T05:37:48.136Z,816.00
2023-05-12T05:38:48.087Z,840.00
2023-05-12T05:39:48.085Z,868.00
2023-05-12T05:40:53.678Z,888.00
2023-05-12T05:41:49.061Z,908.00
2023-05-12T05:42:48.046Z,920.00
2023-05-12T05:43:48.020Z,920.00
2023-05-12T05:44:48.011Z,928.00
2023-05-12T05:45:48.002Z,940.00
2023-05-12T05:46:48.026Z,952.00
2023-05-12T05:47:48.002Z,956.00
2023-05-12T05:48:47.957Z,952.00
2023-05-12T05:49:47.945Z,960.00
2023-05-12T05:50:47.940Z,968.00
2023-05-12T05:51:47.912Z,980.00
2023-05-12T05:52:47.944Z,996.00
2023-05-12T05:53:47.896Z,1016.00
2023-05-12T05:54:47.898Z,1040.00
2023-05-12T05:55:47.850Z,1068.00
2023-05-12T05:56:47.855Z,1096.00
2023-05-12T05:57:47.819Z,1132.00
2023-05-12T05:58:47.816Z,1164.00
2023-05-12T05:59:47.798Z,1192.00
2023-05-12T06:00:47.861Z,1220.00
2023-05-12T06:01:47.793Z,1216.00
2023-05-12T06:02:47.903Z,1212.00
2023-05-12T06:03:47.909Z,1212.00
2023-05-12T06:04:49.214Z,1216.00
2023-05-12T06:05:47.729Z,1232.00
2023-05-12T06:06:47.721Z,1248.00
2023-05-12T06:07:47.688Z,1268.00
2023-05-12T06:08:47.677Z,1288.00
2023-05-12T06:09:47.671Z,1296.00
2023-05-12T06:10:47.670Z,1312.00
2023-05-12T06:11:47.639Z,1336.00
2023-05-12T06:12:47.642Z,1356.00
2023-05-12T06:13:47.615Z,1376.00
2023-05-12T06:14:47.676Z,1388.00
2023-05-12T06:15:47.604Z,1392.00
2023-05-12T06:16:47.675Z,1384.00
2023-05-12T06:17:47.557Z,1392.00
2023-05-12T06:18:47.630Z,1404.00
2023-05-12T06:19:47.533Z,1420.00
2023-05-12T06:20:47.572Z,1436.00
2023-05-12T06:21:47.507Z,1444.00
2023-05-12T06:22:47.511Z,1444.00
2023-05-12T06:23:47.485Z,1456.00
2023-05-12T06:24:47.517Z,1464.00
2023-05-12T06:25:47.456Z,1488.00
2023-05-12T06:26:47.446Z,1524.00
2023-05-12T06:27:47.452Z,1564.00
2023-05-12T06:28:47.447Z,1616.00
2023-05-12T06:29:47.416Z,1672.00
2023-05-12T06:30:47.385Z,1740.00
2023-05-12T06:31:47.425Z,1816.00
2023-05-12T06:32:47.430Z,1920.00
2023-05-12T06:33:47.372Z,2052.00
2023-05-12T06:34:47.348Z,2204.00
2023-05-12T06:35:47.421Z,2376.00
2023-05-12T06:36:47.326Z,2600.00
2023-05-12T06:37:47.305Z,2856.00
2023-05-12T06:38:47.310Z,3176.00
2023-05-12T06:39:47.274Z,3748.00
2023-05-12T06:40:47.267Z,4524.00
2023-05-12T06:41:47.240Z,5288.00
2023-05-12T06:42:47.263Z,5436.00
2023-05-12T06:43:47.237Z,4548.00
2023-05-12T06:44:47.221Z,4656.00
2023-05-12T06:45:47.196Z,5320.00
2023-05-12T06:46:47.230Z,5388.00
2023-05-12T06:47:47.291Z,5252.00
2023-05-12T06:48:47.171Z,5400.00
2023-05-12T06:49:47.151Z,5716.00
2023-05-12T06:50:47.149Z,5764.00
2023-05-12T06:51:47.113Z,5996.00
2023-05-12T06:52:47.122Z,6220.00
2023-05-12T06:53:47.102Z,6488.00
2023-05-12T06:54:47.075Z,7080.00
2023-05-12T06:55:47.077Z,8496.00
2023-05-12T06:56:47.071Z,7988.00
2023-05-12T06:57:47.046Z,8576.00
2023-05-12T06:58:47.032Z,9296.00
2023-05-12T06:59:47.057Z,10456.00
2023-05-12T07:00:47.001Z,10392.00
2023-05-12T07:01:47.120Z,8480.00
2023-05-12T07:02:47.140Z,7776.00
2023-05-12T07:03:47.023Z,7552.00
2023-05-12T07:04:46.947Z,7296.00
2023-05-12T07:05:46.968Z,7620.00
2023-05-12T07:06:46.970Z,7572.00
2023-05-12T07:07:46.913Z,7788.00
2023-05-12T07:08:46.891Z,8356.00
2023-05-12T07:09:46.879Z,8704.00
2023-05-12T07:10:46.863Z,7640.00
2023-05-12T07:11:46.868Z,7516.00
2023-05-12T07:12:46.841Z,7988.00
2023-05-12T07:13:46.813Z,8028.00
2023-05-12T07:14:46.859Z,7856.00
2023-05-12T07:15:46.841Z,7696.00
2023-05-12T07:16:46.816Z,7428.00
2023-05-12T07:17:46.785Z,7396.00
2023-05-12T07:18:46.810Z,7528.00
2023-05-12T07:19:48.701Z,7740.00
2023-05-12T07:20:47.251Z,8240.00
2023-05-12T07:21:48.797Z,7192.00
2023-05-12T07:22:46.704Z,6960.00
2023-05-12T07:23:47.020Z,6884.00
2023-05-12T07:24:46.897Z,6892.00
2023-05-12T07:25:46.826Z,7108.00
2023-05-12T07:26:46.655Z,7136.00
2023-05-12T07:27:46.640Z,7060.00
2023-05-12T07:28:46.632Z,6692.00
2023-05-12T07:29:46.608Z,6644.00
2023-05-12T07:30:46.630Z,6772.00
2023-05-12T07:31:46.674Z,7000.00
2023-05-12T07:32:46.612Z,7948.00
2023-05-12T07:33:46.566Z,6716.00
2023-05-12T07:34:46.549Z,6900.00
2023-05-12T07:35:46.547Z,7228.00
2023-05-12T07:36:46.589Z,7020.00
2023-05-12T07:37:46.521Z,7788.00
2023-05-12T07:38:46.500Z,6980.00
2023-05-12T07:39:46.491Z,8220.00
2023-05-12T07:40:46.505Z,8044.00
2023-05-12T07:41:46.475Z,7216.00
2023-05-12T07:42:46.438Z,6760.00
2023-05-12T07:43:46.439Z,6596.00
2023-05-12T07:44:46.440Z,7876.00
2023-05-12T07:45:46.403Z,7244.00
2023-05-12T07:46:46.419Z,7100.00
2023-05-12T07:47:46.395Z,7056.00
2023-05-12T07:48:46.410Z,7620.00
2023-05-12T07:49:46.385Z,7224.00
2023-05-12T07:50:46.351Z,7240.00
2023-05-12T07:51:46.341Z,6448.00
2023-05-12T07:52:46.337Z,6304.00
2023-05-12T07:53:46.319Z,6908.00
2023-05-12T07:54:46.315Z,7484.00
2023-05-12T07:55:46.294Z,7388.00
2023-05-12T07:56:46.263Z,7184.00
2023-05-12T07:57:46.275Z,5868.00
2023-05-12T07:58:47.586Z,6296.00
2023-05-12T07:59:46.228Z,6180.00
2023-05-12T08:00:46.206Z,6400.00
2023-05-12T08:01:46.284Z,6688.00
2023-05-12T08:02:46.248Z,6672.00
2023-05-12T08:03:46.370Z,6380.00
2023-05-12T08:04:46.210Z,6580.00
2023-05-12T08:05:46.146Z,6572.00
2023-05-12T08:06:46.126Z,6288.00
2023-05-12T08:07:49.448Z,6496.00
2023-05-12T08:08:52.927Z,5660.00
2023-05-12T08:09:46.093Z,5940.00
2023-05-12T08:10:46.073Z,6316.00
2023-05-12T08:11:48.089Z,6132.00
2023-05-12T08:12:46.072Z,5500.00
2023-05-12T08:13:46.054Z,4744.00
2023-05-12T08:14:46.025Z,5068.00
2023-05-12T08:15:46.075Z,5448.00
2023-05-12T08:16:46.071Z,5548.00
2023-05-12T08:17:46.049Z,5868.00
2023-05-12T08:18:46.042Z,5892.00
2023-05-12T08:19:45.988Z,5888.00
2023-05-12T08:20:45.978Z,6068.00
2023-05-12T08:21:45.955Z,5656.00
2023-05-12T08:22:45.974Z,5836.00
2023-05-12T08:23:45.919Z,6104.00
2023-05-12T08:24:45.931Z,6284.00
2023-05-12T08:25:45.886Z,6348.00
2023-05-12T08:26:45.894Z,6368.00
2023-05-12T08:27:45.885Z,6316.00
2023-05-12T08:28:45.854Z,5792.00
2023-05-12T08:29:45.835Z,6100.00
2023-05-12T08:30:45.872Z,5948.00
2023-05-12T08:31:46.111Z,5352.00
2023-05-12T08:32:45.835Z,5188.00
2023-05-12T08:33:46.384Z,5640.00
2023-05-12T08:34:45.766Z,5572.00
2023-05-12T08:35:45.781Z,5472.00
2023-05-12T08:36:45.746Z,5124.00
2023-05-12T08:37:45.758Z,5120.00
2023-05-12T08:38:45.724Z,5052.00
2023-05-12T08:39:45.710Z,4744.00
2023-05-12T08:40:45.858Z,4796.00
2023-05-12T08:41:45.713Z,4884.00
2023-05-12T08:42:45.672Z,5284.00
2023-05-12T08:43:45.665Z,4760.00
2023-05-12T08:44:45.649Z,4984.00
2023-05-12T08:45:45.670Z,5212.00
2023-05-12T08:46:45.813Z,5204.00
2023-05-12T08:47:45.738Z,5244.00
2023-05-12T08:48:45.579Z,5284.00
2023-05-12T08:49:45.605Z,5288.00
2023-05-12T08:50:45.577Z,5296.00
2023-05-12T08:51:52.020Z,5204.00
2023-05-12T08:52:46.569Z,5204.00
2023-05-12T08:53:45.549Z,5196.00
2023-05-12T08:54:55.035Z,5096.00
2023-05-12T08:55:58.383Z,5256.00
2023-05-12T08:57:45.612Z,5280.00
2023-05-12T08:58:45.453Z,5060.00
2023-05-12T08:59:45.464Z,5140.00
2023-05-12T09:00:45.472Z,5104.00
2023-05-12T09:01:45.481Z,5096.00
2023-05-12T09:02:53.285Z,5096.00
2023-05-12T09:03:46.416Z,5068.00
2023-05-12T09:04:45.480Z,4996.00
2023-05-12T09:05:45.390Z,4940.00
2023-05-12T09:06:49.321Z,4948.00
2023-05-12T09:07:45.358Z,4968.00
2023-05-12T09:08:45.348Z,4964.00
2023-05-12T09:09:45.363Z,4984.00
2023-05-12T09:10:45.301Z,5020.00
2023-05-12T09:11:45.325Z,5048.00
2023-05-12T09:12:45.295Z,5048.00
2023-05-12T09:13:45.298Z,5008.00
2023-05-12T09:14:45.258Z,5092.00
2023-05-12T09:15:45.267Z,5148.00
2023-05-12T09:16:45.368Z,5140.00
2023-05-12T09:17:45.270Z,5132.00
2023-05-12T09:18:45.251Z,5244.00
2023-05-12T09:19:45.252Z,5312.00
2023-05-12T09:20:45.186Z,5352.00
2023-05-12T09:21:45.178Z,5244.00
2023-05-12T09:22:45.157Z,5108.00
2023-05-12T09:23:45.185Z,5124.00
2023-05-12T09:24:45.132Z,5360.00
2023-05-12T09:25:45.122Z,5216.00
2023-05-12T09:26:45.197Z,5208.00
2023-05-12T09:27:45.118Z,5176.00
2023-05-12T09:28:45.109Z,4900.00
2023-05-12T09:29:51.780Z,5036.00
2023-05-12T09:30:46.053Z,4972.00
2023-05-12T09:31:45.082Z,4912.00
2023-05-12T09:32:45.179Z,4892.00
2023-05-12T09:33:45.036Z,4828.00
2023-05-12T09:34:45.010Z,4876.00
2023-05-12T09:35:44.999Z,4892.00
2023-05-12T09:36:44.972Z,4892.00
2023-05-12T09:37:45.000Z,4264.00
2023-05-12T09:38:44.982Z,4152.00
2023-05-12T09:39:44.962Z,4516.00
2023-05-12T09:40:44.912Z,4556.00
2023-05-12T09:41:44.961Z,4632.00
2023-05-12T09:42:45.062Z,4528.00
2023-05-12T09:43:44.901Z,4428.00
2023-05-12T09:44:44.901Z,3828.00
2023-05-12T09:45:44.955Z,3868.00
2023-05-12T09:46:44.876Z,4012.00
2023-05-12T09:47:44.987Z,4224.00
2023-05-12T09:48:44.821Z,4316.00
2023-05-12T09:49:44.854Z,4272.00
2023-05-12T09:50:47.908Z,4432.00
2023-05-12T09:51:44.845Z,4136.00
2023-05-12T09:52:45.002Z,4280.00
2023-05-12T09:53:44.756Z,4356.00
2023-05-12T09:54:44.764Z,4384.00
2023-05-12T09:55:44.744Z,4352.00
2023-05-12T09:56:44.762Z,4284.00
2023-05-12T09:57:44.736Z,4372.00
2023-05-12T09:58:44.815Z,4268.00
2023-05-12T09:59:44.687Z,4016.00
2023-05-12T10:01:06.542Z,4308.00
2023-05-12T10:01:45.754Z,4228.00
2023-05-12T10:02:44.652Z,4252.00
2023-05-12T10:03:44.619Z,4196.00
2023-05-12T10:04:44.670Z,4196.00
2023-05-12T10:05:44.611Z,4212.00
2023-05-12T10:06:44.608Z,4164.00
2023-05-12T10:07:44.697Z,4128.00
2023-05-12T10:08:44.592Z,4092.00
2023-05-12T10:09:44.579Z,4108.00
2023-05-12T10:10:44.548Z,4084.00
2023-05-12T10:11:44.560Z,4028.00
2023-05-12T10:12:44.552Z,4020.00
2023-05-12T10:13:44.496Z,3992.00
2023-05-12T10:14:44.524Z,4028.00
2023-05-12T10:15:44.536Z,4104.00
2023-05-12T10:16:44.528Z,4116.00
2023-05-12T10:17:44.519Z,4064.00
2023-05-12T10:18:44.513Z,4076.00
2023-05-12T10:19:44.460Z,4052.00
2023-05-12T10:20:44.425Z,4044.00
2023-05-12T10:21:44.444Z,4052.00
2023-05-12T10:22:44.376Z,4020.00
2023-05-12T10:23:44.393Z,4032.00
2023-05-12T10:24:44.383Z,4040.00
2023-05-12T10:25:44.380Z,4044.00
2023-05-12T10:26:44.373Z,4056.00
2023-05-12T10:27:44.343Z,4116.00
2023-05-12T10:28:44.312Z,4128.00
2023-05-12T10:29:44.369Z,4080.00
2023-05-12T10:30:44.284Z,4024.00
2023-05-12T10:31:44.346Z,4044.00
2023-05-12T10:32:44.316Z,4056.00
2023-05-12T10:33:44.249Z,4088.00
2023-05-12T10:34:44.253Z,4128.00
2023-05-12T10:35:44.726Z,4180.00
2023-05-12T10:36:44.218Z,4236.00
2023-05-12T10:37:44.224Z,4208.00
2023-05-12T10:38:44.203Z,4208.00
2023-05-12T10:39:44.197Z,4228.00
2023-05-12T10:40:44.148Z,4152.00
2023-05-12T10:41:44.145Z,4024.00
2023-05-12T10:42:44.149Z,4032.00
2023-05-12T10:43:44.121Z,4096.00
2023-05-12T10:44:44.140Z,4164.00
2023-05-12T10:45:44.101Z,4236.00
2023-05-12T10:46:44.149Z,4336.00
2023-05-12T10:47:44.129Z,3156.00
2023-05-12T10:48:44.325Z,2996.00
2023-05-12T10:49:44.110Z,2932.00
2023-05-12T10:50:44.018Z,2952.00
2023-05-12T10:51:44.036Z,3004.00
2023-05-12T10:52:44.018Z,3104.00
2023-05-12T10:53:50.048Z,3220.00
2023-05-12T10:54:44.971Z,4660.00
2023-05-12T10:55:44.225Z,4708.00
2023-05-12T10:56:44.396Z,3932.00
2023-05-12T10:57:44.412Z,4720.00
2023-05-12T10:58:44.176Z,3720.00
2023-05-12T10:59:44.260Z,4404.00
2023-05-12T11:00:44.896Z,4168.00
2023-05-12T11:01:44.394Z,4924.00
2023-05-12T11:02:44.584Z,4412.00
2023-05-12T11:03:45.012Z,3556.00
2023-05-12T11:04:44.880Z,3508.00
2023-05-12T11:05:44.270Z,4528.00
2023-05-12T11:06:44.962Z,3632.00
2023-05-12T11:07:44.137Z,3236.00
2023-05-12T11:08:44.296Z,3312.00
2023-05-12T11:09:56.745Z,3384.00
2023-05-12T11:10:44.804Z,3400.00
2023-05-12T11:11:43.800Z,3388.00
2023-05-12T11:12:43.780Z,3356.00
2023-05-12T11:13:43.807Z,3316.00
2023-05-12T11:14:43.783Z,3284.00
2023-05-12T11:15:43.843Z,3244.00
2023-05-12T11:16:47.160Z,3208.00
2023-05-12T11:17:44.841Z,3452.00
2023-05-12T11:18:43.723Z,3600.00
2023-05-12T11:19:43.673Z,3324.00
2023-05-12T11:20:43.752Z,3232.00
2023-05-12T11:21:44.123Z,3260.00
2023-05-12T11:22:43.639Z,3464.00
2023-05-12T11:23:43.636Z,3176.00
2023-05-12T11:24:43.740Z,3168.00
2023-05-12T11:25:44.372Z,3408.00
2023-05-12T11:26:43.599Z,3224.00
2023-05-12T11:27:43.553Z,3272.00
2023-05-12T11:28:44.055Z,3256.00
2023-05-12T11:29:43.535Z,3192.00
2023-05-12T11:30:43.498Z,3128.00
2023-05-12T11:31:44.998Z,3028.00
2023-05-12T11:32:43.495Z,2972.00
2023-05-12T11:33:43.503Z,2944.00
2023-05-12T11:34:43.460Z,2916.00
2023-05-12T11:35:43.460Z,2888.00
2023-05-12T11:36:43.488Z,2852.00
2023-05-12T11:37:43.448Z,2872.00
2023-05-12T11:38:43.434Z,4300.00
2023-05-12T11:39:43.403Z,3340.00
2023-05-12T11:40:43.388Z,2732.00
2023-05-12T11:41:43.426Z,2724.00
2023-05-12T11:42:43.365Z,2744.00
2023-05-12T11:43:43.383Z,2748.00
2023-05-12T11:44:43.336Z,2732.00
2023-05-12T11:45:43.353Z,2728.00
2023-05-12T11:46:43.328Z,2696.00
2023-05-12T11:47:43.320Z,2680.00
2023-05-12T11:48:43.321Z,2672.00
2023-05-12T11:49:43.268Z,2648.00
2023-05-12T11:50:43.256Z,2620.00
2023-05-12T11:51:43.302Z,2596.00
2023-05-12T11:52:43.217Z,2620.00
2023-05-12T11:53:43.308Z,2744.00
2023-05-12T11:54:43.215Z,4188.00
2023-05-12T11:55:43.205Z,3892.00
2023-05-12T11:56:43.228Z,3448.00
2023-05-12T11:57:43.206Z,2576.00
2023-05-12T11:58:43.156Z,2628.00
2023-05-12T11:59:43.185Z,2460.00
2023-05-12T12:00:43.154Z,2748.00
2023-05-12T12:01:43.126Z,2412.00
2023-05-12T12:02:43.226Z,2384.00
2023-05-12T12:03:43.161Z,2408.00
2023-05-12T12:04:43.275Z,2436.00
2023-05-12T12:05:43.114Z,2556.00
2023-05-12T12:06:43.058Z,2488.00
2023-05-12T12:07:43.069Z,2516.00
2023-05-12T12:08:43.038Z,3492.00
2023-05-12T12:09:43.056Z,3800.00
2023-05-12T12:10:43.025Z,2520.00
2023-05-12T12:11:43.002Z,2512.00
2023-05-12T12:12:42.982Z,2524.00
2023-05-12T12:13:43.044Z,2592.00
2023-05-12T12:14:42.978Z,2716.00
2023-05-12T12:15:42.971Z,4164.00
2023-05-12T12:16:42.942Z,2896.00
2023-05-12T12:17:42.948Z,3100.00
2023-05-12T12:18:42.959Z,2852.00
2023-05-12T12:19:42.966Z,3000.00
2023-05-12T12:20:42.915Z,4444.00
2023-05-12T12:21:42.869Z,3284.00
2023-05-12T12:22:42.868Z,3212.00
2023-05-12T12:23:50.927Z,4148.00
2023-05-12T12:24:43.829Z,4448.00
2023-05-12T12:25:42.800Z,3572.00
2023-05-12T12:26:42.840Z,3932.00
2023-05-12T12:27:42.809Z,3924.00
2023-05-12T12:28:42.795Z,3040.00
2023-05-12T12:29:42.781Z,3696.00
2023-05-12T12:30:42.768Z,3176.00
2023-05-12T12:31:42.800Z,4492.00